createdAt,value
2019-01-22T00:02:03.675Z,24.35
2019-01-22T00:04:35.089Z,23.55
2019-01-22T00:07:05.374Z,24.92
2019-01-22T00:09:35.599Z,25.55
2019-01-22T00:12:06.064Z,25.40
2019-01-22T00:14:36.271Z,25.62
2019-01-22T00:17:06.419Z,26.25
2019-01-22T00:19:36.746Z,25.80
2019-01-22T00:22:06.981Z,28.05
2019-01-22T00:24:37.256Z,25.20
2019-01-22T00:27:07.471Z,28.73
2019-01-22T00:29:37.654Z,26.40
2019-01-22T00:32:07.813Z,27.98
2019-01-22T00:34:38.008Z,26.25
2019-01-22T00:37:08.173Z,26.50
2019-01-22T00:39:38.345Z,26.82
2019-01-22T00:42:08.527Z,26.20
2019-01-22T00:44:38.799Z,27.22
2019-01-22T00:47:08.987Z,26.52
2019-01-22T00:49:39.230Z,28.00
2019-01-22T00:52:09.413Z,27.20
2019-01-22T00:54:39.555Z,27.95
2019-01-22T00:57:09.734Z,27.02
2019-01-22T00:59:39.923Z,27.67
2019-01-22T01:02:10.084Z,28.30
2019-01-22T01:04:41.335Z,26.23
2019-01-22T01:07:11.592Z,27.80
2019-01-22T01:09:41.798Z,26.30
2019-01-22T01:12:12.037Z,26.02
2019-01-22T01:14:42.290Z,25.25
2019-01-22T01:17:12.438Z,24.63
2019-01-22T01:19:42.632Z,24.57
2019-01-22T01:22:12.791Z,25.85
2019-01-22T01:24:42.964Z,27.30
2019-01-22T01:27:13.421Z,27.67
2019-01-22T01:29:43.595Z,26.40
2019-01-22T01:32:13.770Z,23.98
2019-01-22T01:34:43.951Z,24.02
2019-01-22T01:37:14.143Z,26.97
2019-01-22T01:39:44.720Z,25.08
2019-01-22T01:42:14.894Z,22.85
2019-01-22T01:44:45.166Z,25.20
2019-01-22T01:47:15.413Z,26.48
2019-01-22T01:49:45.662Z,27.77
2019-01-22T01:52:16.304Z,25.65
2019-01-22T01:54:46.571Z,26.82
2019-01-22T01:57:16.739Z,28.85
2019-01-22T01:59:46.931Z,25.12
2019-01-22T02:02:17.110Z,26.37
2019-01-22T02:04:47.292Z,25.43
2019-01-22T02:07:17.455Z,25.27
2019-01-22T02:09:47.629Z,25.77
2019-01-22T02:12:21.351Z,23.25
2019-01-22T02:14:58.619Z,24.40
2019-01-22T02:18:04.709Z,25.27
2019-01-22T02:21:19.555Z,24.32
2019-01-22T02:24:27.473Z,25.12
2019-01-22T02:27:37.860Z,25.52
2019-01-22T02:30:25.759Z,25.57
2019-01-22T02:33:20.956Z,27.70
2019-01-22T02:36:31.780Z,24.52
2019-01-22T02:39:20.392Z,26.17
2019-01-22T02:42:18.128Z,25.95
2019-01-22T02:45:32.392Z,25.08
2019-01-22T02:48:34.923Z,21.27
2019-01-22T02:51:14.304Z,25.05
2019-01-22T02:53:58.080Z,24.18
2019-01-22T02:57:27.456Z,24.12
2019-01-22T03:00:42.244Z,22.77
2019-01-22T03:03:51.336Z,22.48
2019-01-22T03:07:08.712Z,23.92
2019-01-22T03:10:32.663Z,21.23
2019-01-22T03:13:43.141Z,23.55
2019-01-22T03:16:51.663Z,26.05
2019-01-22T03:19:34.264Z,27.02
2019-01-22T03:22:18.017Z,23.62
2019-01-22T03:25:35.216Z,22.17
2019-01-22T03:28:27.770Z,24.45
2019-01-22T03:31:48.649Z,20.77
2019-01-22T03:34:34.395Z,22.40
2019-01-22T03:37:34.912Z,22.67
2019-01-22T03:40:49.589Z,26.25
2019-01-22T03:44:10.046Z,23.80
2019-01-22T03:47:12.776Z,22.32
2019-01-22T03:50:36.200Z,19.15
2019-01-22T03:53:33.251Z,24.92
2019-01-22T03:56:28.873Z,25.68
2019-01-22T03:58:59.012Z,24.67
2019-01-22T04:01:30.960Z,27.22
2019-01-22T04:04:01.304Z,27.55
2019-01-22T04:06:34.390Z,26.27
2019-01-22T04:09:21.087Z,26.42
2019-01-22T04:11:51.839Z,24.05
2019-01-22T04:14:23.680Z,26.73
2019-01-22T04:16:53.895Z,21.50
2019-01-22T04:19:24.044Z,27.42
2019-01-22T04:21:54.252Z,26.90
2019-01-22T04:24:55.003Z,30.50
2019-01-22T04:28:02.787Z,29.02
2019-01-22T04:30:52.573Z,26.62
2019-01-22T04:34:09.148Z,24.15
2019-01-22T04:37:21.534Z,26.12
2019-01-22T04:40:06.404Z,23.80
2019-01-22T04:43:03.599Z,26.10
2019-01-22T04:46:39.432Z,25.85
2019-01-22T04:49:44.107Z,22.75
2019-01-22T04:52:43.570Z,25.32
2019-01-22T04:55:54.173Z,25.23
2019-01-22T04:58:47.279Z,20.45
2019-01-22T05:01:57.062Z,21.52
2019-01-22T05:04:56.684Z,24.45
2019-01-22T05:07:57.271Z,22.77
2019-01-22T05:11:15.083Z,25.10
2019-01-22T05:13:58.636Z,20.30
2019-01-22T05:17:18.747Z,25.70
2019-01-22T05:20:02.772Z,21.35
2019-01-22T05:23:09.584Z,25.90
2019-01-22T05:26:17.247Z,21.23
2019-01-22T05:29:29.727Z,21.60
2019-01-22T05:32:44.023Z,25.08
2019-01-22T05:35:47.180Z,24.37
2019-01-22T05:38:45.794Z,22.93
2019-01-22T05:41:41.077Z,26.12
2019-01-22T05:44:40.812Z,23.83
2019-01-22T05:47:53.483Z,20.20
2019-01-22T05:51:00.402Z,20.08
2019-01-22T05:54:25.237Z,23.18
2019-01-22T05:57:18.587Z,21.55
2019-01-22T06:00:57.320Z,19.57
2019-01-22T06:04:10.069Z,23.02
2019-01-22T06:06:55.293Z,20.57
2019-01-22T06:10:38.420Z,18.85
2019-01-22T06:13:36.304Z,17.45
2019-01-22T06:16:36.437Z,21.77
2019-01-22T06:19:32.453Z,16.55
2019-01-22T06:22:23.572Z,18.07
2019-01-22T06:25:28.078Z,17.27
2019-01-22T06:28:19.984Z,21.30
2019-01-22T06:31:36.068Z,20.50
2019-01-22T06:34:53.261Z,20.60
2019-01-22T06:37:36.136Z,16.80
2019-01-22T06:40:14.979Z,20.75
2019-01-22T06:43:02.606Z,17.10
2019-01-22T06:46:12.439Z,21.27
2019-01-22T06:49:17.282Z,18.75
2019-01-22T06:52:34.671Z,21.60
2019-01-22T06:55:40.460Z,19.62
2019-01-22T06:58:58.091Z,20.82
2019-01-22T07:02:15.388Z,17.75
2019-01-22T07:05:22.207Z,16.23
2019-01-22T07:08:35.459Z,18.73
2019-01-22T07:11:30.411Z,18.32
2019-01-22T07:14:26.567Z,21.17
2019-01-22T07:17:40.187Z,19.05
2019-01-22T07:20:54.504Z,22.90
2019-01-22T07:24:08.528Z,20.00
2019-01-22T07:26:54.184Z,19.57
2019-01-22T07:30:08.387Z,15.53
2019-01-22T07:32:55.873Z,20.12
2019-01-22T07:35:38.447Z,20.40
2019-01-22T07:38:33.095Z,21.37
2019-01-22T07:41:14.569Z,22.30
2019-01-22T07:44:18.454Z,23.05
2019-01-22T07:47:17.536Z,21.57
2019-01-22T07:50:26.125Z,18.25
2019-01-22T07:53:24.256Z,20.92
2019-01-22T07:56:51.299Z,20.30
2019-01-22T07:59:52.275Z,15.58
2019-01-22T08:02:47.236Z,15.32
2019-01-22T08:06:16.415Z,17.30
2019-01-22T08:09:27.583Z,17.42
2019-01-22T08:12:10.789Z,17.05
2019-01-22T08:15:30.140Z,13.85
2019-01-22T08:18:34.330Z,14.33
2019-01-22T08:21:39.572Z,16.82
2019-01-22T08:24:26.508Z,16.32
2019-01-22T08:27:31.346Z,18.52
2019-01-22T08:31:00.799Z,18.67
2019-01-22T08:33:54.523Z,16.02
2019-01-22T08:37:14.679Z,14.90
2019-01-22T08:40:33.683Z,19.98
2019-01-22T08:43:54.155Z,19.35
2019-01-22T08:47:07.207Z,16.48
2019-01-22T08:50:12.232Z,15.08
2019-01-22T08:53:16.494Z,19.73
2019-01-22T08:56:24.471Z,21.12
2019-01-22T08:59:20.503Z,15.78
2019-01-22T09:02:30.750Z,16.32
2019-01-22T09:05:33.435Z,14.75
2019-01-22T09:08:22.594Z,18.73
2019-01-22T09:11:29.760Z,21.02
2019-01-22T09:14:33.183Z,19.42
2019-01-22T09:17:59.704Z,17.02
2019-01-22T09:21:06.896Z,16.70
2019-01-22T09:24:23.835Z,18.90
2019-01-22T09:27:37.071Z,14.43
2019-01-22T09:30:35.075Z,18.75
2019-01-22T09:33:52.348Z,18.40
2019-01-22T09:36:38.331Z,18.75
2019-01-22T09:39:12.451Z,16.45
2019-01-22T09:41:42.732Z,14.30
2019-01-22T09:44:12.953Z,20.40
2019-01-22T09:46:43.115Z,19.12
2019-01-22T09:49:13.299Z,16.05
2019-01-22T09:51:43.497Z,17.77
2019-01-22T09:54:13.703Z,19.85
2019-01-22T09:56:43.880Z,15.53
2019-01-22T09:59:14.052Z,13.93
2019-01-22T10:01:44.247Z,13.98
2019-01-22T10:04:14.447Z,17.87
2019-01-22T10:06:44.623Z,17.40
2019-01-22T10:09:14.886Z,19.50
2019-01-22T10:11:45.088Z,17.77
2019-01-22T10:14:15.275Z,18.65
2019-01-22T10:16:45.433Z,16.93
2019-01-22T10:19:15.754Z,15.03
2019-01-22T10:21:45.928Z,14.28
2019-01-22T10:24:16.125Z,16.82
2019-01-22T10:26:46.398Z,15.68
2019-01-22T10:29:16.616Z,15.50
2019-01-22T10:31:50.355Z,16.95
2019-01-22T10:34:18.659Z,15.23
2019-01-22T10:36:48.991Z,17.32
2019-01-22T10:39:19.174Z,20.97
2019-01-22T10:41:49.361Z,15.90
2019-01-22T10:44:19.531Z,14.78
2019-01-22T10:46:49.732Z,14.85
2019-01-22T10:49:19.975Z,15.93
2019-01-22T10:51:50.175Z,15.75
2019-01-22T10:54:20.334Z,13.60
2019-01-22T10:56:50.540Z,17.20
2019-01-22T10:59:20.799Z,15.30
2019-01-22T11:01:51.028Z,18.27
2019-01-22T11:04:21.294Z,15.18
2019-01-22T11:06:51.491Z,17.73
2019-01-22T11:09:21.660Z,14.47
2019-01-22T11:11:51.864Z,18.55
2019-01-22T11:14:22.064Z,16.85
2019-01-22T11:16:53.812Z,15.65
2019-01-22T11:19:27.796Z,13.15
2019-01-22T11:21:55.879Z,20.12
2019-01-22T11:24:30.257Z,17.85
2019-01-22T11:26:59.059Z,13.53
2019-01-22T11:29:29.291Z,14.40
2019-01-22T11:31:59.531Z,14.70
2019-01-22T11:34:29.727Z,14.85
2019-01-22T11:36:59.934Z,15.18
2019-01-22T11:39:30.122Z,18.60
2019-01-22T11:42:03.168Z,16.60
2019-01-22T11:44:33.364Z,17.05
2019-01-22T11:47:04.775Z,16.00
2019-01-22T11:49:35.080Z,17.75
2019-01-22T11:52:05.329Z,14.38
2019-01-22T11:54:35.466Z,16.23
2019-01-22T11:57:05.666Z,15.63
2019-01-22T11:59:35.948Z,14.95
2019-01-22T12:02:06.531Z,17.10
2019-01-22T12:04:36.768Z,16.90
2019-01-22T12:07:06.936Z,17.32
2019-01-22T12:09:37.524Z,15.20
2019-01-22T12:12:07.714Z,17.25
2019-01-22T12:14:37.896Z,18.40
2019-01-22T12:17:08.080Z,17.23
2019-01-22T12:19:38.247Z,15.03
2019-01-22T12:22:08.436Z,18.17
2019-01-22T12:24:38.624Z,18.57
2019-01-22T12:27:08.804Z,20.40
2019-01-22T12:29:38.973Z,15.73
2019-01-22T12:32:09.256Z,16.60
2019-01-22T12:34:39.436Z,17.20
2019-01-22T12:37:09.735Z,20.07
2019-01-22T12:39:40.038Z,22.17
2019-01-22T12:42:10.298Z,16.33
2019-01-22T12:44:41.810Z,18.40
2019-01-22T12:47:12.114Z,15.75
2019-01-22T12:49:42.388Z,19.77
2019-01-22T12:52:12.601Z,20.35
2019-01-22T12:54:42.902Z,18.12
2019-01-22T12:57:13.098Z,17.97
2019-01-22T12:59:43.377Z,16.15
2019-01-22T13:02:13.580Z,17.70
2019-01-22T13:04:43.795Z,18.70
2019-01-22T13:07:14.012Z,19.00
2019-01-22T13:09:44.170Z,17.60
2019-01-22T13:12:14.580Z,21.37
2019-01-22T13:14:44.755Z,17.60
2019-01-22T13:17:14.942Z,18.62
2019-01-22T13:19:45.136Z,16.52
2019-01-22T13:22:15.387Z,18.82
2019-01-22T13:24:45.612Z,19.47
2019-01-22T13:27:15.781Z,19.13
2019-01-22T13:29:45.981Z,21.02
2019-01-22T13:32:16.239Z,19.80
2019-01-22T13:34:46.524Z,22.90
2019-01-22T13:37:16.861Z,19.52
2019-01-22T13:39:47.119Z,19.95
2019-01-22T13:42:17.445Z,17.17
2019-01-22T13:44:47.648Z,18.17
2019-01-22T13:47:17.935Z,20.00
2019-01-22T13:49:48.169Z,15.85
2019-01-22T13:52:18.385Z,23.10
2019-01-22T13:54:48.565Z,18.30
2019-01-22T13:57:18.739Z,19.48
2019-01-22T13:59:48.934Z,18.45
2019-01-22T14:02:19.145Z,19.82
2019-01-22T14:04:49.555Z,19.42
2019-01-22T14:07:19.755Z,14.73
2019-01-22T14:09:49.984Z,16.15
2019-01-22T14:12:20.253Z,17.02
2019-01-22T14:14:50.633Z,17.87
2019-01-22T14:17:20.936Z,19.92
2019-01-22T14:19:51.184Z,17.37
2019-01-22T14:22:23.758Z,16.87
2019-01-22T14:24:56.451Z,17.37
2019-01-22T14:27:26.640Z,15.80
2019-01-22T14:29:56.875Z,24.18
2019-01-22T14:32:27.215Z,16.77
2019-01-22T14:34:57.399Z,17.00
2019-01-22T14:37:27.583Z,21.20
2019-01-22T14:39:57.767Z,22.98
2019-01-22T14:42:27.996Z,25.65
2019-01-22T14:44:58.191Z,21.73
2019-01-22T14:47:28.419Z,23.15
2019-01-22T14:49:58.629Z,15.55
2019-01-22T14:52:28.823Z,19.25
2019-01-22T14:54:59.013Z,15.23
2019-01-22T14:57:29.343Z,17.02
2019-01-22T14:59:59.623Z,18.05
2019-01-22T15:02:30.912Z,19.77
2019-01-22T15:05:01.099Z,23.20
2019-01-22T15:07:31.278Z,23.07
2019-01-22T15:10:01.587Z,18.52
2019-01-22T15:12:32.838Z,16.85
2019-01-22T15:15:03.055Z,19.75
2019-01-22T15:17:33.250Z,21.15
2019-01-22T15:20:09.352Z,15.78
2019-01-22T15:22:39.550Z,17.02
2019-01-22T15:25:10.460Z,17.55
2019-01-22T15:27:40.688Z,16.42
2019-01-22T15:30:37.068Z,15.85
2019-01-22T15:33:08.389Z,13.25
2019-01-22T15:35:38.573Z,14.40
2019-01-22T15:38:08.779Z,17.00
2019-01-22T15:40:38.964Z,15.20
2019-01-22T15:43:10.667Z,18.20
2019-01-22T15:45:40.852Z,18.70
2019-01-22T15:48:11.090Z,19.05
2019-01-22T15:50:41.406Z,17.00
2019-01-22T15:53:11.612Z,22.02
2019-01-22T15:55:47.874Z,22.67
2019-01-22T15:58:13.685Z,21.57
2019-01-22T16:00:45.360Z,22.07
2019-01-22T16:03:15.653Z,21.52
2019-01-22T16:05:45.884Z,19.27
2019-01-22T16:08:16.071Z,25.48
2019-01-22T16:10:46.251Z,16.60
2019-01-22T16:13:16.470Z,22.00
2019-01-22T16:15:46.735Z,19.67
2019-01-22T16:18:16.937Z,17.20
2019-01-22T16:20:47.168Z,21.20
2019-01-22T16:23:17.334Z,23.15
2019-01-22T16:25:47.551Z,21.68
2019-01-22T16:28:17.720Z,25.62
2019-01-22T16:30:47.935Z,22.05
2019-01-22T16:33:18.243Z,20.10
2019-01-22T16:35:48.424Z,21.00
2019-01-22T16:38:18.615Z,20.35
2019-01-22T16:40:48.789Z,21.42
2019-01-22T16:43:19.048Z,18.98
2019-01-22T16:45:49.312Z,20.15
2019-01-22T16:48:19.501Z,28.57
2019-01-22T16:50:50.764Z,26.00
2019-01-22T16:53:22.278Z,24.32
2019-01-22T16:55:52.497Z,21.80
2019-01-22T16:58:22.670Z,20.75
2019-01-22T17:00:52.864Z,19.98
2019-01-22T17:03:23.263Z,19.60
2019-01-22T17:05:53.565Z,19.75
2019-01-22T17:08:23.782Z,20.80
2019-01-22T17:10:53.997Z,23.38
2019-01-22T17:13:24.210Z,20.27
2019-01-22T17:15:57.573Z,19.32
2019-01-22T17:18:27.755Z,19.90
2019-01-22T17:20:58.059Z,18.27
2019-01-22T17:23:28.237Z,21.50
2019-01-22T17:25:58.463Z,23.70
2019-01-22T17:28:28.616Z,21.15
2019-01-22T17:30:59.807Z,22.55
2019-01-22T17:33:37.336Z,18.50
2019-01-22T17:36:07.787Z,22.25
2019-01-22T17:38:39.847Z,24.72
2019-01-22T17:41:10.055Z,24.18
2019-01-22T17:43:40.244Z,17.23
2019-01-22T17:46:10.480Z,18.20
2019-01-22T17:48:40.731Z,25.55
2019-01-22T17:51:10.922Z,25.30
2019-01-22T17:53:41.185Z,24.05
2019-01-22T17:56:11.361Z,28.10
2019-01-22T17:58:41.567Z,28.30
2019-01-22T18:01:11.820Z,22.85
2019-01-22T18:03:42.049Z,22.00
2019-01-22T18:06:12.213Z,28.98
2019-01-22T18:08:42.423Z,23.07
2019-01-22T18:11:12.592Z,23.10
2019-01-22T18:13:42.784Z,22.65
2019-01-22T18:16:12.948Z,23.73
2019-01-22T18:18:46.259Z,24.90
2019-01-22T18:21:15.148Z,20.92
2019-01-22T18:23:45.360Z,23.18
2019-01-22T18:26:15.569Z,18.87
2019-01-22T18:28:45.737Z,25.40
2019-01-22T18:31:15.931Z,26.35
2019-01-22T18:33:46.208Z,23.18
2019-01-22T18:36:16.403Z,27.82
2019-01-22T18:38:46.679Z,25.80
2019-01-22T18:41:18.347Z,26.77
2019-01-22T18:43:48.617Z,23.45
2019-01-22T18:46:21.790Z,24.67
2019-01-22T18:48:52.088Z,25.10
2019-01-22T18:51:22.499Z,25.27
2019-01-22T18:53:52.704Z,26.23
2019-01-22T18:56:22.924Z,28.15
2019-01-22T18:58:54.215Z,21.97
2019-01-22T19:01:24.491Z,26.40
2019-01-22T19:03:54.723Z,28.42
2019-01-22T19:06:24.910Z,27.40
2019-01-22T19:08:55.212Z,28.77
2019-01-22T19:11:25.420Z,30.05
2019-01-22T19:13:55.636Z,28.12
2019-01-22T19:16:25.824Z,29.35
2019-01-22T19:18:56.017Z,30.37
2019-01-22T19:21:27.406Z,27.35
2019-01-22T19:23:57.640Z,26.33
2019-01-22T19:26:28.033Z,31.30
2019-01-22T19:28:58.243Z,25.40
2019-01-22T19:31:28.513Z,29.35
2019-01-22T19:33:58.719Z,27.70
2019-01-22T19:36:28.889Z,26.80
2019-01-22T19:38:59.224Z,31.62
2019-01-22T19:41:29.448Z,26.25
2019-01-22T19:43:59.611Z,26.73
2019-01-22T19:46:30.023Z,27.55
2019-01-22T19:49:00.221Z,28.75
2019-01-22T19:51:30.439Z,26.75
2019-01-22T19:54:00.620Z,23.18
2019-01-22T19:56:30.856Z,26.75
2019-01-22T19:59:01.048Z,24.60
2019-01-22T20:01:31.239Z,25.90
2019-01-22T20:04:01.521Z,21.07
2019-01-22T20:06:31.741Z,27.82
2019-01-22T20:09:01.992Z,23.18
2019-01-22T20:11:33.948Z,23.80
2019-01-22T20:14:04.464Z,29.63
2019-01-22T20:16:34.636Z,27.98
2019-01-22T20:19:04.833Z,25.32
2019-01-22T20:21:36.112Z,25.82
2019-01-22T20:24:06.307Z,23.30
2019-01-22T20:26:36.517Z,24.57
2019-01-22T20:29:06.690Z,28.15
2019-01-22T20:31:36.917Z,25.75
2019-01-22T20:34:07.111Z,25.17
2019-01-22T20:36:37.424Z,21.87
2019-01-22T20:39:09.968Z,25.23
2019-01-22T20:41:40.177Z,26.10
2019-01-22T20:44:12.158Z,31.35
2019-01-22T20:46:43.433Z,32.23
2019-01-22T20:49:13.604Z,25.75
2019-01-22T20:51:43.811Z,24.30
2019-01-22T20:54:14.001Z,20.43
2019-01-22T20:56:44.892Z,25.70
2019-01-22T20:59:15.239Z,16.10
2019-01-22T21:01:45.448Z,27.50
2019-01-22T21:04:15.692Z,31.75
2019-01-22T21:06:45.980Z,20.80
2019-01-22T21:09:16.269Z,24.70
2019-01-22T21:11:46.603Z,20.80
2019-01-22T21:14:16.901Z,23.38
2019-01-22T21:16:47.109Z,31.07
2019-01-22T21:19:17.288Z,23.60
2019-01-22T21:21:47.483Z,26.12
2019-01-22T21:24:17.675Z,28.62
2019-01-22T21:26:47.901Z,19.70
2019-01-22T21:29:18.268Z,21.77
2019-01-22T21:31:48.437Z,26.93
2019-01-22T21:34:18.621Z,27.37
2019-01-22T21:36:53.143Z,23.87
2019-01-22T21:39:20.704Z,29.67
2019-01-22T21:41:50.929Z,25.00
2019-01-22T21:44:21.143Z,25.15
2019-01-22T21:46:51.349Z,21.33
2019-01-22T21:49:21.600Z,30.25
2019-01-22T21:51:51.792Z,27.85
2019-01-22T21:54:22.080Z,32.17
2019-01-22T21:56:52.295Z,26.90
2019-01-22T21:59:22.490Z,33.08
2019-01-22T22:01:52.699Z,28.10
2019-01-22T22:04:22.932Z,29.10
2019-01-22T22:06:53.186Z,27.50
2019-01-22T22:09:23.385Z,27.20
2019-01-22T22:11:53.556Z,27.05
2019-01-22T22:14:23.760Z,26.20
2019-01-22T22:16:53.914Z,23.87
2019-01-22T22:19:23.807Z,25.50
2019-01-22T22:21:54.091Z,25.95
2019-01-22T22:24:24.296Z,18.57
2019-01-22T22:26:54.526Z,26.60
2019-01-22T22:29:24.695Z,21.35
2019-01-22T22:31:54.992Z,24.60
2019-01-22T22:34:25.158Z,19.17
2019-01-22T22:36:55.360Z,19.80
2019-01-22T22:39:26.736Z,24.43
2019-01-22T22:41:56.975Z,24.87
2019-01-22T22:44:27.163Z,23.27
2019-01-22T22:46:57.443Z,25.72
2019-01-22T22:49:27.616Z,24.27
2019-01-22T22:51:57.795Z,27.90
2019-01-22T22:54:28.072Z,27.10
2019-01-22T22:56:58.273Z,27.35
2019-01-22T22:59:28.426Z,25.40
2019-01-22T23:01:58.642Z,25.62
2019-01-22T23:04:28.865Z,21.55
2019-01-22T23:06:59.096Z,20.32
2019-01-22T23:09:29.284Z,30.40
2019-01-22T23:11:59.473Z,27.95
2019-01-22T23:14:29.669Z,21.50
2019-01-22T23:17:00.061Z,30.80
2019-01-22T23:19:30.242Z,30.37
2019-01-22T23:22:00.440Z,34.45
2019-01-22T23:24:30.615Z,26.70
2019-01-22T23:27:00.848Z,29.30
2019-01-22T23:29:31.043Z,24.82
2019-01-22T23:32:02.202Z,32.20
2019-01-22T23:34:32.444Z,25.60
2019-01-22T23:37:02.627Z,26.25
2019-01-22T23:39:32.812Z,26.02
2019-01-22T23:42:02.991Z,31.55
2019-01-22T23:44:33.195Z,31.82
2019-01-22T23:47:05.332Z,29.35
2019-01-22T23:49:35.495Z,27.65
2019-01-22T23:52:05.931Z,36.03
2019-01-22T23:54:36.117Z,20.77
2019-01-22T23:57:07.284Z,27.02
2019-01-22T23:59:37.488Z,25.90
